sensor_id;sensor_type;location;lat;lon;timestamp;P1;durP1;ratioP1;P2;durP2;ratioP2
23068;SDS011;11702;50.856;4.348;2023-04-15T00:00:01;7.13;;;3.25;;
23068;SDS011;11702;50.856;4.348;2023-04-15T00:02:27;4.68;;;3.30;;
23068;SDS011;11702;50.856;4.348;2023-04-15T00:04:53;5.97;;;3.40;;
23068;SDS011;11702;50.856;4.348;2023-04-15T00:07:19;5.38;;;3.28;;
23068;SDS011;11702;50.856;4.348;2023-04-15T00:09:44;5.90;;;3.28;;
23068;SDS011;11702;50.856;4.348;2023-04-15T00:12:10;4.68;;;2.97;;
23068;SDS011;11702;50.856;4.348;2023-04-15T00:14:37;3.95;;;3.38;;
23068;SDS011;11702;50.856;4.348;2023-04-15T00:17:03;5.50;;;3.80;;
23068;SDS011;11702;50.856;4.348;2023-04-15T00:19:29;7.72;;;3.72;;
23068;SDS011;11702;50.856;4.348;2023-04-15T00:21:55;6.43;;;3.75;;
23068;SDS011;11702;50.856;4.348;2023-04-15T00:24:21;6.40;;;4.18;;
23068;SDS011;11702;50.856;4.348;2023-04-15T00:26:47;8.55;;;4.05;;
23068;SDS011;11702;50.856;4.348;2023-04-15T00:29:13;7.90;;;3.90;;
23068;SDS011;11702;50.856;4.348;2023-04-15T00:31:39;6.18;;;3.55;;
23068;SDS011;11702;50.856;4.348;2023-04-15T00:34:05;8.00;;;4.63;;
23068;SDS011;11702;50.856;4.348;2023-04-15T00:36:30;7.93;;;4.30;;
23068;SDS011;11702;50.856;4.348;2023-04-15T00:38:57;6.53;;;3.67;;
23068;SDS011;11702;50.856;4.348;2023-04-15T09:22:30;14.73;;;8.63;;
23068;SDS011;11702;50.856;4.348;2023-04-15T09:25:29;14.70;;;8.43;;
23068;SDS011;11702;50.856;4.348;2023-04-15T09:28:00;12.60;;;7.47;;
23068;SDS011;11702;50.856;4.348;2023-04-15T09:30:29;18.17;;;8.25;;
23068;SDS011;11702;50.856;4.348;2023-04-15T09:33:02;12.88;;;7.50;;
23068;SDS011;11702;50.856;4.348;2023-04-15T09:35:34;11.25;;;7.00;;
23068;SDS011;11702;50.856;4.348;2023-04-15T09:38:24;9.80;;;5.70;;
23068;SDS011;11702;50.856;4.348;2023-04-15T09:40:49;9.57;;;5.78;;
23068;SDS011;11702;50.856;4.348;2023-04-15T09:43:37;10.75;;;5.28;;
23068;SDS011;11702;50.856;4.348;2023-04-15T09:46:03;8.07;;;5.07;;
23068;SDS011;11702;50.856;4.348;2023-04-15T09:48:33;9.30;;;4.55;;
23068;SDS011;11702;50.856;4.348;2023-04-15T09:50:59;10.75;;;4.28;;
23068;SDS011;11702;50.856;4.348;2023-04-15T09:53:26;9.80;;;4.93;;
23068;SDS011;11702;50.856;4.348;2023-04-15T09:55:58;9.15;;;5.50;;
23068;SDS011;11702;50.856;4.348;2023-04-15T09:58:28;10.80;;;5.72;;
23068;SDS011;11702;50.856;4.348;2023-04-15T10:01:10;7.93;;;6.07;;
23068;SDS011;11702;50.856;4.348;2023-04-15T10:03:36;10.02;;;5.45;;
23068;SDS011;11702;50.856;4.348;2023-04-15T10:06:03;10.45;;;5.57;;
23068;SDS011;11702;50.856;4.348;2023-04-15T10:08:32;10.55;;;6.32;;
23068;SDS011;11702;50.856;4.348;2023-04-15T10:11:04;11.88;;;6.25;;
23068;SDS011;11702;50.856;4.348;2023-04-15T10:13:31;14.20;;;6.50;;
23068;SDS011;11702;50.856;4.348;2023-04-15T10:19:02;10.75;;;6.25;;
23068;SDS011;11702;50.856;4.348;2023-04-15T10:21:30;10.60;;;6.22;;
23068;SDS011;11702;50.856;4.348;2023-04-15T10:23:58;9.60;;;6.18;;
23068;SDS011;11702;50.856;4.348;2023-04-15T10:26:47;9.48;;;5.32;;
23068;SDS011;11702;50.856;4.348;2023-04-15T10:29:12;7.88;;;6.03;;
23068;SDS011;11702;50.856;4.348;2023-04-15T10:31:38;11.05;;;5.95;;
23068;SDS011;11702;50.856;4.348;2023-04-15T10:34:05;11.15;;;5.57;;
23068;SDS011;11702;50.856;4.348;2023-04-15T10:36:31;10.07;;;4.57;;
23068;SDS011;11702;50.856;4.348;2023-04-15T10:38:57;7.78;;;4.53;;
23068;SDS011;11702;50.856;4.348;2023-04-15T10:43:51;9.40;;;4.65;;
23068;SDS011;11702;50.856;4.348;2023-04-15T10:49:09;8.05;;;4.18;;
23068;SDS011;11702;50.856;4.348;2023-04-15T10:51:40;4.82;;;3.60;;
23068;SDS011;11702;50.856;4.348;2023-04-15T10:56:43;3.92;;;2.78;;
23068;SDS011;11702;50.856;4.348;2023-04-15T10:59:09;5.57;;;3.22;;
23068;SDS011;11702;50.856;4.348;2023-04-15T11:01:53;4.45;;;2.70;;
23068;SDS011;11702;50.856;4.348;2023-04-15T11:20:48;5.20;;;3.83;;
23068;SDS011;11702;50.856;4.348;2023-04-15T11:25:56;6.30;;;3.45;;
23068;SDS011;11702;50.856;4.348;2023-04-15T11:28:24;4.47;;;3.97;;
23068;SDS011;11702;50.856;4.348;2023-04-15T11:31:04;5.03;;;3.33;;
23068;SDS011;11702;50.856;4.348;2023-04-15T11:33:35;10.13;;;4.10;;
23068;SDS011;11702;50.856;4.348;2023-04-15T11:36:00;9.20;;;4.10;;
23068;SDS011;11702;50.856;4.348;2023-04-15T11:38:28;4.30;;;3.17;;
23068;SDS011;11702;50.856;4.348;2023-04-15T11:40:54;3.38;;;2.85;;
23068;SDS011;11702;50.856;4.348;2023-04-15T11:43:20;5.97;;;2.47;;
23068;SDS011;11702;50.856;4.348;2023-04-15T11:45:50;2.25;;;1.80;;
23068;SDS011;11702;50.856;4.348;2023-04-15T11:48:18;3.90;;;2.28;;
23068;SDS011;11702;50.856;4.348;2023-04-15T11:50:44;5.63;;;2.40;;
23068;SDS011;11702;50.856;4.348;2023-04-15T11:53:11;4.35;;;3.15;;
23068;SDS011;11702;50.856;4.348;2023-04-15T11:55:44;4.57;;;3.10;;
23068;SDS011;11702;50.856;4.348;2023-04-15T11:58:15;5.65;;;3.33;;
23068;SDS011;11702;50.856;4.348;2023-04-15T12:00:46;6.07;;;3.33;;
23068;SDS011;11702;50.856;4.348;2023-04-15T12:03:21;8.35;;;2.72;;
23068;SDS011;11702;50.856;4.348;2023-04-15T12:16:39;4.72;;;2.63;;
23068;SDS011;11702;50.856;4.348;2023-04-15T12:19:10;3.30;;;2.63;;
23068;SDS011;11702;50.856;4.348;2023-04-15T12:21:38;5.75;;;3.10;;
23068;SDS011;11702;50.856;4.348;2023-04-15T12:24:07;5.00;;;3.47;;
23068;SDS011;11702;50.856;4.348;2023-04-15T12:26:34;5.13;;;3.15;;
23068;SDS011;11702;50.856;4.348;2023-04-15T12:29:01;5.82;;;3.10;;
23068;SDS011;11702;50.856;4.348;2023-04-15T12:31:32;9.15;;;3.38;;
23068;SDS011;11702;50.856;4.348;2023-04-15T12:34:01;5.38;;;3.08;;
23068;SDS011;11702;50.856;4.348;2023-04-15T12:36:28;3.00;;;2.47;;
23068;SDS011;11702;50.856;4.348;2023-04-15T12:39:06;5.85;;;2.60;;
23068;SDS011;11702;50.856;4.348;2023-04-15T12:41:32;7.78;;;2.88;;
